Main page
METAR-TAF:

METAR-TAF

Airports :

Mossoró Airport

Mossoró, Rio Grande do Norte, Brazil

latitude: 05-12S, longitude: 037-22W, elevation: 23 m

Current weather observation

The report was made 11 hours and 46 minutes ago, at 20:00 UTC
Wind 15 kt from the East/Northeast
Temperature 31°C
Humidity 49%
Pressure 1011 hPa
Visibility 10 km or more
no clouds below 1500 m and no cumulonimbus

METAR: SBMS 162000Z 06015KT CAVOK 31/19 Q1011

Time: 04:46 (07:46 UTC)


TAF: missing

Weather observations and forecasts of more than 4000 airports (METAR and TAF reports).

The available stations are represented by yellow and red dots on the map.

Hover mouse over dot to see the name of the station.

Then click to see weather observations and forecasts.

To change the map : click on the green buttons with a black cross to zoom in, on the green button with a dash to zoom out, or on the green arrows for adjacent maps.


METAR-TAF: